createdAt,value
2023-04-06T00:00:01.859Z,4.80
2023-04-06T00:02:51.453Z,4.70
2023-04-06T00:05:40.983Z,4.80
2023-04-06T00:08:30.761Z,4.80
2023-04-06T00:11:20.113Z,4.70
2023-04-06T00:14:10.856Z,4.70
2023-04-06T00:17:00.720Z,4.70
2023-04-06T00:19:50.240Z,4.70
2023-04-06T00:22:39.688Z,4.60
2023-04-06T00:25:29.146Z,4.60
2023-04-06T00:28:18.609Z,4.60
2023-04-06T00:31:09.322Z,4.60
2023-04-06T00:33:59.730Z,4.60
2023-04-06T00:36:49.268Z,4.50
2023-04-06T00:39:38.728Z,4.50
2023-04-06T00:42:28.146Z,4.50
2023-04-06T00:45:17.675Z,4.50
2023-04-06T00:48:09.223Z,4.50
2023-04-06T00:50:58.674Z,4.50
2023-04-06T00:53:48.044Z,4.50
2023-04-06T00:56:37.992Z,4.50
2023-04-06T00:59:28.367Z,4.50
2023-04-06T01:02:18.486Z,4.50
2023-04-06T01:05:13.448Z,4.60
2023-04-06T01:08:12.721Z,4.60
2023-04-06T01:11:02.890Z,4.60
2023-04-06T01:13:53.246Z,4.60
2023-04-06T01:16:51.644Z,4.60
2023-04-06T01:19:45.591Z,4.60
2023-04-06T01:22:45.069Z,4.60
2023-04-06T01:25:35.788Z,4.60
2023-04-06T01:28:30.879Z,4.60
2023-04-06T01:31:31.643Z,4.60
2023-04-06T01:34:21.159Z,4.60
2023-04-06T01:37:11.455Z,4.60
2023-04-06T01:40:02.773Z,4.60
2023-04-06T01:43:04.396Z,4.60
2023-04-06T01:45:59.860Z,4.60
2023-04-06T01:48:54.917Z,4.60
2023-04-06T01:51:53.596Z,4.50
2023-04-06T01:54:43.156Z,4.50
2023-04-06T01:57:54.150Z,4.40
2023-04-06T02:00:55.368Z,4.50
2023-04-06T02:03:44.888Z,4.40
2023-04-06T02:06:35.947Z,4.40
2023-04-06T02:09:28.062Z,4.40
2023-04-06T02:12:17.568Z,4.30
2023-04-06T02:15:10.000Z,4.30
2023-04-06T02:18:01.104Z,4.30
2023-04-06T02:20:50.593Z,4.30
2023-04-06T02:23:39.942Z,4.30
2023-04-06T02:26:30.669Z,4.20
2023-04-06T02:29:20.139Z,4.20
2023-04-06T02:32:11.016Z,4.20
2023-04-06T02:35:00.413Z,4.20
2023-04-06T02:37:50.363Z,4.20
2023-04-06T02:40:39.781Z,4.20
2023-04-06T02:43:42.555Z,4.20
2023-04-06T02:46:39.372Z,4.20
2023-04-06T02:49:30.212Z,4.30
2023-04-06T02:52:22.040Z,4.30
2023-04-06T02:55:11.743Z,4.40
2023-04-06T02:58:01.439Z,4.50
2023-04-06T03:00:58.111Z,4.60
2023-04-06T03:03:47.997Z,4.60
2023-04-06T03:06:46.314Z,4.70
2023-04-06T03:09:45.484Z,4.80
2023-04-06T03:12:34.988Z,4.80
2023-04-06T03:15:43.545Z,4.90
2023-04-06T03:18:39.717Z,4.90
2023-04-06T03:21:29.185Z,5.00
2023-04-06T03:24:19.941Z,5.00
2023-04-06T03:27:09.489Z,5.10
2023-04-06T03:29:58.931Z,5.10
2023-04-06T03:32:54.484Z,5.20
2023-04-06T03:35:46.438Z,5.20
2023-04-06T03:38:35.925Z,5.20
2023-04-06T03:41:32.634Z,5.30
2023-04-06T03:44:49.914Z,5.30
2023-04-06T03:47:39.828Z,5.30
2023-04-06T03:50:30.981Z,5.40
2023-04-06T03:53:20.411Z,5.40
2023-04-06T03:56:09.899Z,5.40
2023-04-06T03:59:00.836Z,5.40
2023-04-06T04:01:50.613Z,5.40
2023-04-06T04:04:40.362Z,5.40
2023-04-06T04:07:29.703Z,5.40
2023-04-06T04:10:19.196Z,5.40
2023-04-06T04:13:09.616Z,5.40
2023-04-06T04:16:01.206Z,5.40
2023-04-06T04:18:50.937Z,5.50
2023-04-06T04:21:46.712Z,5.50
2023-04-06T04:24:40.057Z,5.50
2023-04-06T04:27:29.626Z,5.50
2023-04-06T04:30:19.319Z,5.50
2023-04-06T04:33:10.220Z,5.50
2023-04-06T04:36:00.369Z,5.50
2023-04-06T04:38:54.706Z,5.50
2023-04-06T04:41:45.294Z,5.50
2023-04-06T04:44:35.678Z,5.50
2023-04-06T04:47:26.318Z,5.50
2023-04-06T04:50:17.851Z,5.50
2023-04-06T04:53:09.427Z,5.50
2023-04-06T04:55:59.170Z,5.50
2023-04-06T04:58:51.066Z,5.50
2023-04-06T05:01:51.853Z,5.50
2023-04-06T05:04:47.571Z,5.50
2023-04-06T05:07:44.392Z,5.50
2023-04-06T05:10:41.761Z,5.60
2023-04-06T05:13:32.680Z,5.70
2023-04-06T05:16:24.806Z,5.80
2023-04-06T05:19:14.287Z,5.80
2023-04-06T05:22:07.181Z,5.90
2023-04-06T05:25:00.617Z,6.10
2023-04-06T05:27:50.158Z,6.30
2023-04-06T05:30:55.143Z,6.60
2023-04-06T05:33:45.135Z,6.90
2023-04-06T05:36:38.263Z,7.30
2023-04-06T05:39:36.635Z,7.80
2023-04-06T05:42:28.104Z,8.30
2023-04-06T05:45:22.348Z,8.80
2023-04-06T05:48:16.458Z,9.30
2023-04-06T05:51:07.461Z,9.80
2023-04-06T05:54:06.256Z,10.10
2023-04-06T05:56:56.274Z,10.40
2023-04-06T05:59:47.117Z,10.50
2023-04-06T06:02:38.380Z,10.70
2023-04-06T06:05:28.398Z,10.80
2023-04-06T06:08:19.658Z,11.00
2023-04-06T06:11:11.030Z,11.30
2023-04-06T06:14:01.755Z,11.60
2023-04-06T06:16:59.822Z,12.00
2023-04-06T06:19:50.486Z,12.40
2023-04-06T06:22:41.218Z,12.80
2023-04-06T06:25:35.287Z,13.20
2023-04-06T06:28:27.234Z,13.50
2023-04-06T06:31:17.208Z,13.80
2023-04-06T06:34:08.583Z,13.90
2023-04-06T06:36:59.783Z,13.90
2023-04-06T06:39:49.276Z,13.90
2023-04-06T06:42:39.072Z,14.00
2023-04-06T06:45:37.789Z,14.10
2023-04-06T06:48:27.805Z,14.50
2023-04-06T06:51:18.698Z,14.80
2023-04-06T06:54:08.519Z,15.20
2023-04-06T06:56:58.621Z,15.50
2023-04-06T06:59:48.517Z,15.80
2023-04-06T07:02:38.698Z,16.10
2023-04-06T07:05:29.141Z,16.50
2023-04-06T07:08:22.768Z,17.00
2023-04-06T07:11:12.256Z,17.60
2023-04-06T07:14:01.747Z,18.20
2023-04-06T07:16:52.027Z,18.90
2023-04-06T07:19:42.226Z,19.60
2023-04-06T07:22:31.835Z,20.30
2023-04-06T07:25:25.606Z,20.90
2023-04-06T07:28:15.452Z,21.50
2023-04-06T07:31:05.201Z,22.20
2023-04-06T07:33:54.743Z,22.80
2023-04-06T07:36:44.379Z,23.30
2023-04-06T07:39:33.844Z,23.70
2023-04-06T07:42:25.109Z,24.10
2023-04-06T07:45:16.556Z,24.40
2023-04-06T07:48:06.725Z,24.70
2023-04-06T07:51:04.284Z,24.90
2023-04-06T07:53:55.816Z,25.20
2023-04-06T07:56:45.287Z,25.50
2023-04-06T07:59:36.149Z,25.70
2023-04-06T08:02:25.720Z,25.70
2023-04-06T08:05:15.166Z,25.50
2023-04-06T08:08:04.796Z,25.10
2023-04-06T08:10:54.287Z,24.60
2023-04-06T08:13:43.729Z,24.10
2023-04-06T08:16:34.707Z,23.60
2023-04-06T08:19:24.247Z,23.30
2023-04-06T08:22:16.422Z,23.00
2023-04-06T08:25:06.950Z,22.60
2023-04-06T08:27:57.606Z,22.10
2023-04-06T08:30:47.356Z,21.60
2023-04-06T08:33:40.203Z,21.20
2023-04-06T08:36:29.798Z,20.90
2023-04-06T08:39:24.921Z,20.60
2023-04-06T08:42:22.873Z,20.30
2023-04-06T08:45:13.002Z,20.00
2023-04-06T08:48:02.982Z,19.70
2023-04-06T08:50:53.910Z,19.40
2023-04-06T08:53:43.888Z,19.20
2023-04-06T08:56:33.801Z,19.10
2023-04-06T08:59:23.397Z,19.00
2023-04-06T09:02:19.237Z,18.80
2023-04-06T09:05:10.164Z,18.80
2023-04-06T09:08:00.957Z,18.70
2023-04-06T09:10:53.008Z,18.80
2023-04-06T09:13:50.388Z,18.80
2023-04-06T09:16:43.203Z,18.80
2023-04-06T09:19:32.589Z,18.80
2023-04-06T09:22:22.239Z,18.70
2023-04-06T09:25:22.118Z,18.70
2023-04-06T09:28:11.588Z,18.70
2023-04-06T09:31:01.272Z,18.60
2023-04-06T09:33:50.952Z,18.60
2023-04-06T09:36:42.236Z,18.60
2023-04-06T09:39:31.759Z,18.50
2023-04-06T09:42:28.151Z,18.40
2023-04-06T09:45:17.725Z,18.50
2023-04-06T09:48:07.572Z,18.80
2023-04-06T09:51:06.461Z,19.30
2023-04-06T09:54:02.269Z,20.10
2023-04-06T09:56:59.709Z,21.00
2023-04-06T10:00:01.668Z,21.70
2023-04-06T10:02:58.985Z,22.10
2023-04-06T10:05:52.935Z,22.30
2023-04-06T10:08:43.694Z,22.40
2023-04-06T10:11:33.467Z,22.40
2023-04-06T10:14:22.899Z,22.10
2023-04-06T10:17:13.750Z,22.10
2023-04-06T10:20:10.906Z,22.00
2023-04-06T10:23:07.749Z,22.00
2023-04-06T10:25:58.573Z,22.20
2023-04-06T10:28:50.019Z,22.50
2023-04-06T10:31:45.818Z,23.00
2023-04-06T10:34:38.781Z,23.50
2023-04-06T10:37:28.243Z,24.10
2023-04-06T10:40:27.897Z,24.80
2023-04-06T10:43:23.626Z,25.70
2023-04-06T10:46:13.795Z,26.50
2023-04-06T10:49:13.556Z,27.30
2023-04-06T10:52:04.484Z,27.90
2023-04-06T10:54:55.787Z,28.10
2023-04-06T10:57:45.360Z,28.20
2023-04-06T11:00:47.378Z,28.50
2023-04-06T11:03:46.730Z,28.70
2023-04-06T11:06:36.163Z,28.90
2023-04-06T11:09:28.332Z,28.80
2023-04-06T11:12:25.974Z,28.40
2023-04-06T11:15:15.512Z,27.90
2023-04-06T11:18:07.020Z,27.40
2023-04-06T11:20:56.471Z,27.00
2023-04-06T11:23:45.917Z,26.50
2023-04-06T11:26:46.231Z,26.00
2023-04-06T11:29:37.731Z,25.50
2023-04-06T11:32:27.375Z,25.00
2023-04-06T11:35:24.262Z,24.50
2023-04-06T11:38:13.746Z,23.90
2023-04-06T11:41:04.668Z,23.30
2023-04-06T11:43:57.881Z,22.60
2023-04-06T11:46:55.195Z,22.10
2023-04-06T11:49:46.833Z,21.50
2023-04-06T11:52:36.403Z,21.10
2023-04-06T11:55:26.066Z,20.60
2023-04-06T11:58:16.074Z,20.30
2023-04-06T12:01:10.068Z,20.00
2023-04-06T12:03:59.779Z,19.70
2023-04-06T12:06:50.295Z,19.40
2023-04-06T12:09:39.908Z,19.10
2023-04-06T12:12:29.789Z,18.80
2023-04-06T12:15:19.392Z,18.60
2023-04-06T12:18:10.232Z,18.40
2023-04-06T12:20:59.644Z,18.20
2023-04-06T12:23:49.195Z,17.90
2023-04-06T12:26:39.195Z,17.70
2023-04-06T12:29:28.634Z,17.50
2023-04-06T12:32:18.051Z,17.30
2023-04-06T12:35:12.616Z,17.00
2023-04-06T12:38:02.094Z,16.90
2023-04-06T12:40:51.544Z,16.70
2023-04-06T12:43:43.009Z,16.60
2023-04-06T12:46:32.762Z,16.60
2023-04-06T12:49:23.008Z,16.50
2023-04-06T12:52:13.867Z,16.40
2023-04-06T12:55:03.759Z,16.30
2023-04-06T12:57:53.228Z,16.10
2023-04-06T13:00:42.668Z,15.90
2023-04-06T13:03:32.069Z,15.80
2023-04-06T13:06:21.532Z,15.70
2023-04-06T13:09:12.365Z,15.60
2023-04-06T13:12:02.176Z,15.50
2023-04-06T13:14:53.560Z,15.40
2023-04-06T13:17:43.050Z,15.30
2023-04-06T13:20:32.441Z,15.20
2023-04-06T13:23:21.791Z,15.10
2023-04-06T13:26:14.426Z,15.10
2023-04-06T13:29:04.044Z,15.10
2023-04-06T13:31:53.448Z,15.00
2023-04-06T13:34:45.838Z,15.00
2023-04-06T13:37:35.503Z,15.00
2023-04-06T13:40:25.241Z,14.90
2023-04-06T13:43:16.190Z,14.90
2023-04-06T13:46:06.304Z,14.90
2023-04-06T13:48:55.906Z,14.80
2023-04-06T13:51:45.403Z,14.70
2023-04-06T13:54:34.775Z,14.70
2023-04-06T13:57:24.161Z,14.70
2023-04-06T14:00:16.708Z,14.70
2023-04-06T14:03:06.626Z,14.70
2023-04-06T14:05:56.550Z,14.70
2023-04-06T14:08:48.112Z,14.70
2023-04-06T14:11:39.021Z,14.70
2023-04-06T14:14:28.816Z,14.60
2023-04-06T14:17:19.492Z,14.60
2023-04-06T14:20:14.925Z,14.50
2023-04-06T14:23:05.273Z,14.50
2023-04-06T14:25:58.094Z,14.50
2023-04-06T14:28:48.391Z,14.50
2023-04-06T14:31:38.078Z,14.40
2023-04-06T14:34:28.996Z,14.40
2023-04-06T14:37:19.536Z,14.40
2023-04-06T14:40:10.683Z,14.30
2023-04-06T14:43:00.039Z,14.30
2023-04-06T14:45:49.487Z,14.20
2023-04-06T14:48:39.100Z,14.20
2023-04-06T14:51:29.931Z,14.20
2023-04-06T14:54:19.196Z,14.20
2023-04-06T14:57:08.620Z,14.20
2023-04-06T14:59:57.964Z,14.10
2023-04-06T15:02:47.521Z,14.10
2023-04-06T15:05:37.009Z,14.00
2023-04-06T15:08:27.810Z,14.00
2023-04-06T15:11:17.306Z,13.90
2023-04-06T15:14:08.345Z,13.90
2023-04-06T15:16:57.771Z,13.80
2023-04-06T15:19:47.164Z,13.80
2023-04-06T15:22:36.569Z,13.80
2023-04-06T15:25:27.516Z,13.70
2023-04-06T15:28:16.851Z,13.60
2023-04-06T15:31:20.740Z,13.50
2023-04-06T15:34:13.757Z,13.40
2023-04-06T15:37:04.921Z,13.40
2023-04-06T15:39:54.383Z,13.30
2023-04-06T15:42:45.452Z,13.30
2023-04-06T15:45:34.960Z,13.20
2023-04-06T15:48:25.605Z,13.20
2023-04-06T15:51:14.921Z,13.10
2023-04-06T15:54:04.376Z,13.10
2023-04-06T15:56:53.693Z,13.10
2023-04-06T15:59:44.839Z,13.10
2023-04-06T16:02:34.336Z,13.00
2023-04-06T16:05:24.410Z,13.00
2023-04-06T16:08:14.296Z,13.00
2023-04-06T16:11:03.725Z,12.90
2023-04-06T16:13:55.425Z,12.90
2023-04-06T16:16:46.676Z,12.90
2023-04-06T16:19:36.149Z,12.80
2023-04-06T16:22:25.442Z,12.80
2023-04-06T16:25:14.771Z,12.70
2023-04-06T16:28:04.158Z,12.70
2023-04-06T16:30:53.576Z,12.60
2023-04-06T16:33:44.540Z,12.60
2023-04-06T16:36:34.055Z,12.50
2023-04-06T16:39:23.492Z,12.40
2023-04-06T16:42:12.866Z,12.40
2023-04-06T16:45:02.162Z,12.30
2023-04-06T16:47:51.812Z,12.10
2023-04-06T16:50:42.646Z,12.10
2023-04-06T16:53:32.017Z,12.10
2023-04-06T16:56:21.879Z,12.10
2023-04-06T16:59:11.534Z,12.10
2023-04-06T17:02:00.899Z,12.00
2023-04-06T17:04:50.452Z,12.00
2023-04-06T17:07:41.413Z,11.90
2023-04-06T17:10:33.731Z,11.90
2023-04-06T17:13:26.975Z,11.80
2023-04-06T17:16:16.470Z,11.70
2023-04-06T17:19:06.016Z,11.70
2023-04-06T17:21:55.585Z,11.60
2023-04-06T17:24:46.375Z,11.50
2023-04-06T17:27:35.808Z,11.50
2023-04-06T17:30:25.170Z,11.40
2023-04-06T17:33:15.888Z,11.30
2023-04-06T17:36:06.067Z,11.20
2023-04-06T17:38:55.663Z,11.20
2023-04-06T17:41:46.366Z,11.10
2023-04-06T17:44:35.779Z,11.00
2023-04-06T17:47:30.347Z,11.00
2023-04-06T17:50:20.442Z,10.90
2023-04-06T17:53:09.826Z,10.80
2023-04-06T17:55:59.302Z,10.50
2023-04-06T18:01:40.919Z,10.50
2023-04-06T18:04:30.635Z,10.40
2023-04-06T18:07:20.240Z,10.40
2023-04-06T18:10:11.341Z,10.30
2023-04-06T18:13:01.535Z,10.20
2023-04-06T18:15:54.228Z,10.20
2023-04-06T18:18:43.963Z,10.10
2023-04-06T18:21:34.459Z,10.10
2023-04-06T18:24:40.385Z,10.00
2023-04-06T18:27:31.874Z,9.90
2023-04-06T18:30:21.292Z,9.90
2023-04-06T18:33:12.027Z,9.80
2023-04-06T18:36:01.903Z,9.70
2023-04-06T18:38:52.802Z,9.70
2023-04-06T18:41:43.082Z,9.60
2023-04-06T18:44:32.457Z,9.60
2023-04-06T18:47:22.127Z,9.50
2023-04-06T18:50:18.716Z,9.50
2023-04-06T18:53:09.287Z,9.40
2023-04-06T18:55:59.366Z,9.30
2023-04-06T18:58:50.195Z,9.30
2023-04-06T19:01:43.798Z,9.20
2023-04-06T19:04:33.412Z,9.20
2023-04-06T19:07:24.390Z,9.10
2023-04-06T19:10:13.857Z,9.10
2023-04-06T19:13:03.318Z,9.00
2023-04-06T19:15:52.844Z,8.90
2023-04-06T19:18:43.451Z,8.90
2023-04-06T19:21:32.871Z,8.80
2023-04-06T19:24:23.788Z,8.80
2023-04-06T19:27:13.295Z,8.70
2023-04-06T19:30:02.824Z,8.70
2023-04-06T19:32:52.816Z,8.60
2023-04-06T19:35:43.457Z,8.60
2023-04-06T19:38:34.178Z,8.60
2023-04-06T19:41:25.519Z,8.50
2023-04-06T19:44:15.071Z,8.50
2023-04-06T19:47:04.646Z,8.40
2023-04-06T19:49:54.114Z,8.40
2023-04-06T19:52:43.504Z,8.40
2023-04-06T19:55:32.968Z,8.30
2023-04-06T19:58:23.782Z,8.30
2023-04-06T20:01:13.236Z,8.30
2023-04-06T20:04:02.725Z,8.30
2023-04-06T20:06:52.233Z,8.30
2023-04-06T20:09:42.297Z,8.20
2023-04-06T20:12:31.679Z,8.20
2023-04-06T20:15:23.241Z,8.10
2023-04-06T20:18:12.842Z,8.10
2023-04-06T20:21:04.663Z,8.10
2023-04-06T20:23:54.169Z,8.00
2023-04-06T20:26:43.644Z,8.00
2023-04-06T20:29:33.070Z,7.90
2023-04-06T20:32:23.864Z,7.90
2023-04-06T20:35:13.533Z,7.90
2023-04-06T20:38:03.192Z,7.80
2023-04-06T20:40:52.820Z,7.80
2023-04-06T20:43:42.231Z,7.70
2023-04-06T20:46:31.619Z,7.70
2023-04-06T20:49:24.062Z,7.60
2023-04-06T20:52:13.705Z,7.60
2023-04-06T20:55:03.100Z,7.60
2023-04-06T20:57:52.794Z,7.50
2023-04-06T21:00:42.206Z,7.50
2023-04-06T21:03:32.204Z,7.50
2023-04-06T21:06:23.098Z,7.40
2023-04-06T21:09:12.543Z,7.40
2023-04-06T21:12:01.961Z,7.30
2023-04-06T21:14:51.369Z,7.30
2023-04-06T21:17:41.690Z,7.20
2023-04-06T21:20:31.655Z,7.20
2023-04-06T21:23:25.017Z,7.10
2023-04-06T21:26:14.630Z,7.10
2023-04-06T21:29:04.013Z,7.00
2023-04-06T21:31:55.554Z,6.90
2023-04-06T21:34:46.626Z,6.90
2023-04-06T21:37:36.015Z,6.80
2023-04-06T21:40:26.787Z,6.80
2023-04-06T21:43:16.111Z,6.70
2023-04-06T21:46:05.532Z,6.70
2023-04-06T21:48:54.924Z,6.70
2023-04-06T21:51:44.214Z,6.60
2023-04-06T21:54:34.442Z,6.60
2023-04-06T21:57:25.202Z,6.50
2023-04-06T22:00:16.413Z,6.50
2023-04-06T22:03:06.527Z,6.50
2023-04-06T22:05:56.298Z,6.50
2023-04-06T22:08:48.006Z,6.40
2023-04-06T22:11:37.562Z,6.40
2023-04-06T22:14:28.362Z,6.40
2023-04-06T22:17:17.806Z,6.40
2023-04-06T22:20:08.287Z,6.30
2023-04-06T22:22:57.768Z,6.30
2023-04-06T22:25:47.102Z,6.30
2023-04-06T22:28:36.426Z,6.20
2023-04-06T22:31:27.280Z,6.20
2023-04-06T22:34:16.794Z,6.20
2023-04-06T22:37:06.337Z,6.20
2023-04-06T22:39:56.574Z,6.10
2023-04-06T22:42:46.070Z,6.10
2023-04-06T22:45:35.516Z,6.10
2023-04-06T22:48:26.475Z,6.10
2023-04-06T22:51:15.944Z,6.10
2023-04-06T22:54:05.412Z,6.00
2023-04-06T22:56:55.037Z,6.00
2023-04-06T22:59:44.423Z,6.00
2023-04-06T23:02:34.195Z,6.00
2023-04-06T23:05:25.479Z,6.00
2023-04-06T23:08:15.124Z,5.90
2023-04-06T23:11:04.498Z,5.90
2023-04-06T23:13:53.901Z,5.90
2023-04-06T23:16:43.403Z,5.90
2023-04-06T23:19:32.874Z,5.90
2023-04-06T23:22:23.676Z,5.90
2023-04-06T23:25:13.052Z,5.80
2023-04-06T23:28:02.375Z,5.90
2023-04-06T23:30:51.666Z,5.90
2023-04-06T23:33:41.001Z,5.90
2023-04-06T23:36:30.484Z,5.90
2023-04-06T23:39:21.250Z,5.80
2023-04-06T23:42:10.569Z,5.80
2023-04-06T23:45:00.856Z,5.80
2023-04-06T23:47:50.553Z,5.80
2023-04-06T23:50:40.995Z,5.80
2023-04-06T23:53:30.349Z,5.80
2023-04-06T23:56:21.114Z,5.80
2023-04-06T23:59:10.483Z,5.80
